Time;durP1;ratioP1;P1;durP2;ratioP2;P2;SDS_P1;SDS_P2;PMS_P1;PMS_P2;Temp;Humidity;BMP_temperature;BMP_pressure;BME280_temperature;BME280_humidity;BME280_pressure;Samples;Min_cycle;Max_cycle;Signal;HPM_P1;HPM_P2
2023/04/18 00:00:27;;;;;;;18.48;11.55;;;7.20;99.90;;;;;;5019476;28;20042;-57
2023/04/18 00:02:53;;;;;;;20.13;12.93;;;7.30;99.90;;;;;;5037178;28;20616;-57
2023/04/18 00:05:20;;;;;;;17.23;11.93;;;7.30;99.90;;;;;;5037286;28;20042;-58
2023/04/18 00:07:46;;;;;;;20.35;12.18;;;7.30;99.90;;;;;;5036256;28;20046;-57
2023/04/18 00:10:12;;;;;;;19.48;12.23;;;7.30;99.90;;;;;;5019332;28;20076;-57
2023/04/18 00:12:38;;;;;;;19.55;11.65;;;7.30;99.90;;;;;;5037013;28;20080;-57
2023/04/18 00:15:06;;;;;;;18.42;11.52;;;7.20;99.90;;;;;;5037183;28;20056;-57
2023/04/18 00:17:31;;;;;;;19.00;10.98;;;7.30;99.90;;;;;;5037112;28;20335;-57
2023/04/18 00:19:57;;;;;;;16.70;10.93;;;7.20;99.90;;;;;;5037131;28;20041;-57
2023/04/18 00:22:23;;;;;;;17.10;10.82;;;7.30;99.90;;;;;;5036932;28;20041;-58
2023/04/18 00:24:51;;;;;;;17.63;11.32;;;7.40;99.90;;;;;;5018807;28;20103;-57
2023/04/18 00:27:20;;;;;;;16.77;11.05;;;7.30;99.90;;;;;;5036961;28;20401;-57
2023/04/18 00:29:47;;;;;;;17.00;11.07;;;7.30;99.90;;;;;;5037024;28;20045;-58
2023/04/18 00:32:13;;;;;;;17.98;10.82;;;7.30;99.90;;;;;;5036799;28;20066;-57
2023/04/18 00:34:39;;;;;;;17.23;10.43;;;7.30;99.90;;;;;;5036817;28;20054;-58
2023/04/18 00:37:06;;;;;;;17.13;10.55;;;7.30;99.90;;;;;;5036932;28;20048;-58
2023/04/18 00:39:33;;;;;;;16.33;10.05;;;7.20;99.90;;;;;;5036580;28;20034;-57
2023/04/18 00:42:00;;;;;;;17.05;10.55;;;7.30;99.90;;;;;;5021306;28;20056;-58
2023/04/18 00:44:25;;;;;;;15.55;10.25;;;7.30;99.90;;;;;;5040425;28;20055;-57
2023/04/18 00:46:51;;;;;;;15.65;10.20;;;7.20;99.90;;;;;;5040391;28;20451;-57
2023/04/18 00:49:16;;;;;;;16.30;10.18;;;7.30;99.90;;;;;;5038990;28;20036;-58
2023/04/18 00:51:42;;;;;;;15.30;10.38;;;7.20;99.90;;;;;;5059935;28;20039;-58
2023/04/18 00:54:10;;;;;;;16.05;9.65;;;7.20;99.90;;;;;;5060485;28;20044;-57
2023/04/18 00:56:36;;;;;;;17.25;9.73;;;7.20;99.90;;;;;;5041720;28;20055;-57
2023/04/18 00:59:02;;;;;;;15.77;9.57;;;7.20;99.90;;;;;;5059890;28;20095;-57
2023/04/18 01:01:28;;;;;;;15.07;10.35;;;7.20;99.90;;;;;;5060115;28;20071;-58
2023/04/18 01:03:53;;;;;;;17.08;9.35;;;7.10;99.90;;;;;;5059531;28;20045;-57
2023/04/18 01:06:20;;;;;;;15.10;9.98;;;7.20;99.90;;;;;;5059971;28;20049;-57
2023/04/18 01:08:46;;;;;;;13.50;8.77;;;7.20;99.90;;;;;;5059673;28;20041;-57
2023/04/18 01:11:11;;;;;;;14.30;9.02;;;7.10;99.90;;;;;;5059827;28;20080;-57
2023/04/18 01:13:38;;;;;;;13.23;8.10;;;7.10;99.90;;;;;;5058618;28;20044;-57
2023/04/18 01:16:04;;;;;;;16.13;9.98;;;7.00;99.90;;;;;;5059752;28;20052;-58
2023/04/18 01:18:33;;;;;;;16.85;9.40;;;7.00;99.90;;;;;;5059552;28;20033;-57
2023/04/18 01:21:00;;;;;;;13.98;9.63;;;7.00;99.90;;;;;;5059377;28;20614;-57
2023/04/18 01:23:26;;;;;;;14.38;9.57;;;7.00;99.90;;;;;;5059696;28;20502;-58
2023/04/18 01:25:51;;;;;;;14.88;9.07;;;7.00;99.90;;;;;;5059708;28;20540;-58
2023/04/18 01:28:20;;;;;;;13.35;8.57;;;7.00;99.90;;;;;;5059657;28;20043;-57
2023/04/18 01:30:45;;;;;;;14.90;8.60;;;6.90;99.90;;;;;;5059101;28;20040;-57
2023/04/18 01:33:11;;;;;;;16.10;8.70;;;6.90;99.90;;;;;;5059215;28;20045;-57
2023/04/18 01:35:37;;;;;;;14.65;8.93;;;7.00;99.90;;;;;;5059315;28;20045;-57
2023/04/18 01:38:02;;;;;;;15.32;9.75;;;6.90;99.90;;;;;;5058960;28;20048;-57
2023/04/18 01:40:29;;;;;;;17.20;9.93;;;6.90;99.90;;;;;;5059197;28;20045;-58
2023/04/18 01:42:54;;;;;;;15.02;8.68;;;6.90;99.90;;;;;;5059370;28;20044;-57
2023/04/18 01:45:21;;;;;;;15.18;8.68;;;6.90;99.90;;;;;;5059600;28;20084;-56
2023/04/18 01:47:47;;;;;;;16.10;9.20;;;6.80;99.90;;;;;;5051402;28;20049;-58
2023/04/18 01:50:13;;;;;;;13.45;8.30;;;6.80;99.90;;;;;;5039299;28;20044;-57
2023/04/18 01:52:38;;;;;;;14.20;8.85;;;6.80;99.90;;;;;;5037892;28;20045;-58
2023/04/18 01:55:05;;;;;;;15.35;7.95;;;6.80;99.90;;;;;;5039091;28;20081;-57
2023/04/18 01:57:31;;;;;;;14.52;8.35;;;6.80;99.90;;;;;;5039022;28;20045;-58
2023/04/18 01:59:57;;;;;;;13.60;8.48;;;6.70;99.90;;;;;;5039491;28;20101;-58
2023/04/18 02:02:23;;;;;;;13.88;8.52;;;6.70;99.90;;;;;;5038725;28;20041;-57
2023/04/18 02:04:48;;;;;;;13.63;7.72;;;6.60;99.90;;;;;;5021328;28;20049;-58
2023/04/18 02:07:14;;;;;;;14.23;7.93;;;6.60;99.90;;;;;;5038919;28;20512;-58
2023/04/18 02:09:40;;;;;;;12.85;7.70;;;6.60;99.90;;;;;;5038404;28;20066;-58
2023/04/18 02:12:06;;;;;;;12.48;7.07;;;6.60;99.90;;;;;;5038892;28;20073;-58
2023/04/18 02:14:33;;;;;;;13.90;7.32;;;6.60;99.90;;;;;;5038495;28;20045;-58
2023/04/18 02:16:59;;;;;;;13.95;7.47;;;6.60;99.90;;;;;;5038805;28;20136;-58
2023/04/18 02:19:25;;;;;;;12.52;7.70;;;6.60;99.90;;;;;;5021013;28;20657;-57
2023/04/18 02:21:50;;;;;;;14.35;7.47;;;6.60;99.90;;;;;;5038767;28;20049;-59
2023/04/18 02:24:16;;;;;;;12.32;7.13;;;6.60;99.90;;;;;;5038459;28;20041;-58
2023/04/18 02:26:45;;;;;;;13.50;7.28;;;6.60;99.90;;;;;;5038167;28;20037;-58
2023/04/18 02:29:10;;;;;;;13.18;7.22;;;6.50;99.90;;;;;;5038166;28;20041;-58
2023/04/18 02:31:39;;;;;;;12.73;6.68;;;6.60;99.90;;;;;;5038139;28;20042;-58
2023/04/18 02:34:05;;;;;;;11.75;6.22;;;6.50;99.90;;;;;;5038589;28;20046;-58
2023/04/18 02:36:31;;;;;;;11.45;7.28;;;6.50;99.90;;;;;;5038465;28;20073;-57
2023/04/18 02:38:56;;;;;;;11.18;6.55;;;6.60;99.90;;;;;;5038302;28;20127;-57
2023/04/18 02:41:22;;;;;;;12.80;6.70;;;6.70;99.90;;;;;;5020433;28;20081;-58
2023/04/18 02:43:48;;;;;;;11.82;6.53;;;6.60;99.90;;;;;;5038265;28;20045;-58
2023/04/18 02:46:14;;;;;;;12.95;7.10;;;6.60;99.90;;;;;;5037672;28;20210;-57
2023/04/18 02:48:39;;;;;;;12.68;6.68;;;6.70;99.90;;;;;;5040633;28;20046;-58
2023/04/18 02:51:06;;;;;;;12.82;7.22;;;6.70;99.90;;;;;;5056883;28;20045;-57
2023/04/18 02:53:33;;;;;;;11.60;7.22;;;6.70;99.90;;;;;;5057842;28;20120;-58
2023/04/18 02:55:59;;;;;;;11.77;7.32;;;6.80;99.90;;;;;;5058144;28;20044;-58
2023/04/18 02:58:25;;;;;;;12.45;7.00;;;6.80;99.90;;;;;;5057632;28;20037;-58
2023/04/18 03:00:55;;;;;;;15.18;7.57;;;6.80;99.90;;;;;;5039732;28;20048;-57
2023/04/18 03:03:21;;;;;;;15.32;7.30;;;6.90;99.90;;;;;;5057123;28;20037;-58
2023/04/18 03:05:47;;;;;;;11.82;7.18;;;6.90;99.90;;;;;;5057602;28;20049;-58
2023/04/18 03:08:13;;;;;;;15.50;7.60;;;6.90;99.90;;;;;;5057401;28;20063;-57
2023/04/18 03:10:39;;;;;;;12.15;7.53;;;7.00;99.90;;;;;;5057271;28;20115;-57
2023/04/18 03:13:05;;;;;;;13.80;9.43;;;7.00;99.90;;;;;;5057709;28;20049;-57
2023/04/18 03:15:30;;;;;;;13.32;8.50;;;7.00;99.90;;;;;;5057568;28;20051;-57
2023/04/18 03:17:56;;;;;;;11.95;7.95;;;7.00;99.90;;;;;;5057615;28;20126;-59
2023/04/18 03:20:22;;;;;;;13.40;7.90;;;7.00;99.90;;;;;;5057160;28;20132;-58
2023/04/18 03:22:47;;;;;;;15.20;8.70;;;7.10;99.90;;;;;;5057487;28;20053;-57
2023/04/18 03:25:13;;;;;;;15.60;9.50;;;7.10;99.90;;;;;;5057037;28;20045;-55
2023/04/18 03:27:39;;;;;;;12.68;8.13;;;7.10;99.90;;;;;;5057401;28;20045;-58
2023/04/18 03:30:06;;;;;;;14.95;9.15;;;7.10;99.90;;;;;;5057626;28;20037;-58
2023/04/18 03:32:35;;;;;;;12.95;7.85;;;7.10;99.90;;;;;;5039466;28;20104;-58
2023/04/18 03:35:01;;;;;;;14.73;8.70;;;7.20;99.90;;;;;;5057770;28;20365;-58
2023/04/18 03:37:26;;;;;;;11.50;7.20;;;7.10;99.90;;;;;;5038835;28;20068;-58
2023/04/18 03:39:52;;;;;;;14.07;7.75;;;7.20;99.90;;;;;;5057534;28;20056;-58
2023/04/18 03:42:18;;;;;;;13.63;8.15;;;7.20;99.90;;;;;;5056962;28;20072;-58
2023/04/18 03:44:43;;;;;;;11.65;6.68;;;7.20;99.90;;;;;;5057616;28;20060;-58
2023/04/18 03:47:09;;;;;;;13.10;8.38;;;7.20;99.90;;;;;;5055027;28;20530;-58
2023/04/18 03:49:35;;;;;;;11.02;7.22;;;7.10;99.90;;;;;;5037260;28;20041;-57
2023/04/18 03:52:01;;;;;;;11.88;7.10;;;7.20;99.90;;;;;;5037470;28;20095;-58
2023/04/18 03:54:27;;;;;;;13.02;7.30;;;7.30;99.90;;;;;;5037090;28;20101;-58
2023/04/18 03:56:53;;;;;;;10.40;7.00;;;7.20;99.90;;;;;;5037088;28;20264;-58
2023/04/18 03:59:18;;;;;;;11.32;6.57;;;7.20;99.90;;;;;;5036960;28;20061;-57
2023/04/18 04:01:44;;;;;;;12.82;7.38;;;7.20;99.90;;;;;;5037341;28;20029;-58
2023/04/18 04:04:11;;;;;;;12.80;7.75;;;7.20;99.90;;;;;;5037442;28;20050;-58
2023/04/18 04:06:37;;;;;;;12.95;7.60;;;7.20;99.90;;;;;;5019338;28;20045;-58
2023/04/18 04:09:03;;;;;;;18.95;12.18;;;7.20;99.90;;;;;;5036609;28;20103;-58
2023/04/18 04:11:28;;;;;;;14.30;9.15;;;7.20;99.90;;;;;;5036957;28;20045;-58
2023/04/18 04:13:54;;;;;;;13.77;7.70;;;7.20;99.90;;;;;;5037210;28;20071;-58
2023/04/18 04:16:20;;;;;;;11.40;6.97;;;7.20;99.90;;;;;;5038349;28;20584;-58
2023/04/18 04:18:45;;;;;;;12.73;8.10;;;7.20;99.90;;;;;;5040877;28;20041;-58
2023/04/18 04:21:11;;;;;;;16.02;9.43;;;7.20;99.90;;;;;;5040873;28;20049;-58
2023/04/18 04:23:37;;;;;;;17.88;8.02;;;7.30;99.90;;;;;;5023235;28;20069;-58
2023/04/18 04:26:03;;;;;;;14.60;8.07;;;7.20;99.90;;;;;;5040562;28;20116;-57
2023/04/18 04:28:30;;;;;;;13.52;7.05;;;7.20;99.90;;;;;;5040936;28;20633;-57
2023/04/18 04:30:56;;;;;;;13.00;7.55;;;7.20;99.90;;;;;;5040609;28;20746;-57
2023/04/18 04:33:24;;;;;;;13.40;8.10;;;7.30;99.90;;;;;;5040415;28;20472;-58
2023/04/18 04:35:53;;;;;;;11.52;7.68;;;7.30;99.90;;;;;;5040715;28;20080;-57
2023/04/18 04:38:21;;;;;;;13.88;8.50;;;7.30;99.90;;;;;;5022416;28;20045;-56
2023/04/18 04:40:48;;;;;;;15.43;8.60;;;7.30;99.90;;;;;;5040548;28;20045;-58
2023/04/18 04:43:15;;;;;;;13.43;8.18;;;7.30;99.90;;;;;;5040252;28;20053;-57
2023/04/18 04:45:41;;;;;;;15.43;7.05;;;7.40;99.90;;;;;;5040730;28;20041;-57
2023/04/18 04:48:08;;;;;;;14.10;8.18;;;7.30;99.90;;;;;;5042918;28;20406;-58
2023/04/18 04:50:35;;;;;;;14.20;8.18;;;7.40;99.90;;;;;;5054528;28;20041;-57
2023/04/18 04:53:01;;;;;;;12.18;7.80;;;7.40;99.90;;;;;;5060594;28;21150;-57
2023/04/18 04:55:27;;;;;;;14.40;8.70;;;7.30;99.90;;;;;;5060014;28;20045;-58
2023/04/18 04:57:54;;;;;;;15.07;8.65;;;7.30;99.90;;;;;;5042570;28;20053;-58
2023/04/18 05:00:20;;;;;;;13.48;8.80;;;7.40;99.90;;;;;;5060045;28;20045;-57
2023/04/18 05:02:47;;;;;;;15.60;8.90;;;7.40;99.90;;;;;;5060416;28;20041;-58
2023/04/18 05:05:13;;;;;;;13.18;8.48;;;7.40;99.90;;;;;;5059855;28;20044;-58
2023/04/18 05:07:38;;;;;;;12.90;7.10;;;7.40;99.90;;;;;;5059664;28;20041;-58
2023/04/18 05:10:05;;;;;;;14.73;8.82;;;7.40;99.90;;;;;;5059544;28;20102;-58
2023/04/18 05:12:30;;;;;;;12.63;8.35;;;7.30;99.90;;;;;;5041932;28;20127;-58
2023/04/18 05:14:56;;;;;;;15.23;8.93;;;7.40;99.90;;;;;;5059741;28;20068;-58
2023/04/18 05:17:22;;;;;;;14.23;7.78;;;7.40;99.90;;;;;;5059723;28;20049;-58
2023/04/18 05:19:48;;;;;;;12.20;7.53;;;7.40;99.90;;;;;;5059946;28;20079;-59
2023/04/18 05:22:14;;;;;;;14.35;8.27;;;7.50;99.90;;;;;;5059480;28;20045;-58
2023/04/18 05:24:40;;;;;;;15.77;8.25;;;7.50;99.90;;;;;;5059550;28;20422;-58
2023/04/18 05:27:06;;;;;;;14.45;8.73;;;7.50;99.90;;;;;;5059172;28;20083;-57
2023/04/18 05:29:32;;;;;;;16.00;8.77;;;7.50;99.90;;;;;;5041917;28;20041;-59
2023/04/18 05:31:58;;;;;;;15.80;7.88;;;7.50;99.90;;;;;;5059484;28;20049;-58
2023/04/18 05:34:24;;;;;;;14.95;8.82;;;7.50;99.90;;;;;;5059545;28;20453;-58
2023/04/18 05:36:50;;;;;;;15.93;8.85;;;7.50;99.90;;;;;;5059504;28;20045;-58
2023/04/18 05:39:16;;;;;;;15.48;9.90;;;7.60;99.90;;;;;;5021533;28;20056;-58
2023/04/18 05:41:41;;;;;;;15.52;9.30;;;7.60;99.90;;;;;;5039231;28;20045;-58
2023/04/18 05:44:07;;;;;;;17.00;9.77;;;7.60;99.90;;;;;;5039549;28;20131;-59
2023/04/18 05:46:34;;;;;;;14.48;8.63;;;7.70;99.90;;;;;;5039141;28;20034;-58
2023/04/18 05:49:00;;;;;;;14.00;9.23;;;7.70;99.90;;;;;;5043516;28;20046;-58
2023/04/18 05:51:27;;;;;;;14.00;8.63;;;7.80;99.90;;;;;;5059248;28;20399;-58
2023/04/18 05:53:53;;;;;;;17.27;10.20;;;7.70;99.90;;;;;;5059262;28;20393;-58
2023/04/18 05:56:19;;;;;;;18.02;10.27;;;7.70;99.90;;;;;;5058787;28;20072;-57
2023/04/18 05:58:46;;;;;;;14.77;9.07;;;7.70;99.90;;;;;;5058810;28;20041;-57
2023/04/18 06:01:13;;;;;;;12.90;8.20;;;7.70;99.90;;;;;;5058784;28;20060;-57
2023/04/18 06:03:40;;;;;;;15.45;8.95;;;7.70;99.90;;;;;;5058888;28;20652;-58
2023/04/18 06:06:06;;;;;;;15.98;8.73;;;7.70;99.90;;;;;;5040337;28;20544;-58
2023/04/18 06:08:32;;;;;;;14.38;8.68;;;7.80;99.90;;;;;;5058849;28;20068;-57
2023/04/18 06:10:58;;;;;;;14.82;8.93;;;7.80;99.90;;;;;;5054244;28;20056;-58
2023/04/18 06:13:23;;;;;;;15.45;9.18;;;7.80;99.90;;;;;;5055150;28;20405;-58
2023/04/18 06:15:49;;;;;;;19.02;9.68;;;7.90;99.90;;;;;;5055387;28;20049;-58
2023/04/18 06:18:15;;;;;;;14.98;8.93;;;8.10;99.90;;;;;;5055601;28;20040;-58
2023/04/18 06:20:42;;;;;;;14.88;9.32;;;8.20;99.90;;;;;;5055204;28;20044;-58
2023/04/18 06:23:08;;;;;;;16.45;9.23;;;8.20;99.90;;;;;;5054799;28;20053;-58
2023/04/18 06:25:34;;;;;;;14.48;8.18;;;8.20;99.90;;;;;;5055292;28;20050;-58
2023/04/18 06:28:00;;;;;;;15.48;8.85;;;8.30;99.90;;;;;;5055044;28;20049;-58
2023/04/18 06:30:26;;;;;;;13.48;8.00;;;8.30;99.90;;;;;;5036948;28;20493;-57
2023/04/18 06:32:51;;;;;;;15.10;7.88;;;8.40;99.90;;;;;;5055074;28;20078;-56
2023/04/18 06:35:17;;;;;;;12.75;8.23;;;8.30;99.90;;;;;;5054636;28;20131;-57
2023/04/18 06:37:43;;;;;;;15.07;8.10;;;8.40;99.90;;;;;;5054508;28;20045;-57
2023/04/18 06:40:12;;;;;;;12.18;7.60;;;8.30;99.90;;;;;;5054582;28;20059;-58
2023/04/18 06:42:38;;;;;;;14.90;8.20;;;8.30;99.90;;;;;;5055078;28;20080;-58
2023/04/18 06:45:05;;;;;;;13.23;8.50;;;8.30;99.90;;;;;;5054558;28;20052;-57
2023/04/18 06:47:31;;;;;;;14.23;8.52;;;8.30;99.90;;;;;;5049344;28;20052;-58
2023/04/18 06:49:57;;;;;;;13.13;7.97;;;8.30;99.90;;;;;;5034787;28;20048;-57
2023/04/18 06:52:22;;;;;;;15.73;8.07;;;8.30;99.90;;;;;;5016472;28;20053;-57
2023/04/18 06:54:48;;;;;;;13.95;8.00;;;8.40;99.90;;;;;;5034574;28;20038;-58
2023/04/18 06:57:13;;;;;;;15.18;8.63;;;8.40;99.90;;;;;;5034260;28;20049;-57
2023/04/18 06:59:40;;;;;;;20.08;8.45;;;8.40;99.90;;;;;;5034791;28;20046;-57
2023/04/18 07:02:07;;;;;;;13.20;8.10;;;8.50;99.90;;;;;;5034612;28;20045;-58
2023/04/18 07:04:32;;;;;;;14.65;8.90;;;8.50;99.90;;;;;;5034846;28;20092;-58
2023/04/18 07:06:58;;;;;;;14.23;8.73;;;8.60;99.90;;;;;;5034589;28;20495;-58
2023/04/18 07:09:24;;;;;;;13.80;7.25;;;8.60;99.90;;;;;;5033746;28;20544;-58
2023/04/18 07:11:51;;;;;;;15.27;8.13;;;8.70;99.90;;;;;;5034466;28;20106;-58
2023/04/18 07:14:18;;;;;;;14.82;8.15;;;8.70;99.90;;;;;;5033641;28;20072;-58
2023/04/18 07:16:45;;;;;;;13.02;8.02;;;8.90;99.90;;;;;;5034422;28;20778;-57
2023/04/18 07:19:11;;;;;;;14.35;8.18;;;8.90;99.90;;;;;;5034587;28;20050;-58
2023/04/18 07:21:39;;;;;;;14.00;8.50;;;8.90;99.90;;;;;;5034173;28;20052;-58
2023/04/18 07:24:05;;;;;;;15.80;8.40;;;8.90;99.90;;;;;;5034269;28;20053;-57
2023/04/18 07:26:31;;;;;;;14.10;8.38;;;9.00;99.90;;;;;;5034354;28;20702;-57
2023/04/18 07:28:56;;;;;;;12.25;7.50;;;9.10;99.90;;;;;;5033903;28;20041;-58
2023/04/18 07:31:24;;;;;;;11.88;7.53;;;9.30;99.90;;;;;;5048284;28;20049;-58
2023/04/18 07:33:50;;;;;;;15.48;8.73;;;9.30;99.90;;;;;;5053414;28;20056;-58
2023/04/18 07:36:16;;;;;;;14.27;9.15;;;9.30;99.90;;;;;;5053669;28;20770;-57
2023/04/18 07:38:43;;;;;;;16.33;8.82;;;9.30;99.90;;;;;;5053424;28;20101;-58
2023/04/18 07:41:09;;;;;;;12.80;8.15;;;9.30;99.90;;;;;;5054186;28;20500;-58
2023/04/18 07:43:35;;;;;;;12.77;8.48;;;9.30;99.90;;;;;;5053369;28;20067;-58
2023/04/18 07:46:01;;;;;;;13.35;8.68;;;9.40;99.90;;;;;;5034949;28;20040;-58
2023/04/18 07:48:26;;;;;;;13.90;8.60;;;9.40;99.90;;;;;;5040652;28;20099;-57
2023/04/18 07:50:53;;;;;;;13.63;8.57;;;9.40;99.90;;;;;;5037207;28;20049;-57
2023/04/18 07:53:18;;;;;;;14.43;9.00;;;9.50;99.90;;;;;;5035905;28;20056;-58
2023/04/18 07:55:45;;;;;;;14.38;8.85;;;9.60;99.90;;;;;;5019397;28;20045;-58
2023/04/18 07:58:11;;;;;;;15.30;8.65;;;9.60;99.90;;;;;;5038031;28;20049;-58
2023/04/18 08:00:41;;;;;;;14.93;8.07;;;9.70;99.90;;;;;;5037992;28;20046;-57
2023/04/18 08:03:09;;;;;;;12.80;8.32;;;9.70;99.90;;;;;;5037884;28;20042;-57
2023/04/18 08:05:35;;;;;;;12.80;8.68;;;9.90;99.90;;;;;;5037873;28;20053;-58
2023/04/18 08:08:01;;;;;;;14.55;9.05;;;9.90;99.90;;;;;;5037614;28;20052;-57
2023/04/18 08:10:27;;;;;;;12.68;8.77;;;9.90;99.90;;;;;;5037420;28;20042;-57
2023/04/18 08:12:52;;;;;;;15.80;8.25;;;10.00;99.90;;;;;;5037929;28;20049;-58
2023/04/18 08:15:18;;;;;;;12.60;8.38;;;10.10;99.90;;;;;;5038016;28;20061;-58
2023/04/18 08:17:47;;;;;;;13.45;8.43;;;10.10;99.90;;;;;;5037628;28;20084;-57
2023/04/18 08:20:14;;;;;;;14.95;8.48;;;10.20;99.90;;;;;;5037495;28;20128;-58
2023/04/18 08:22:40;;;;;;;17.08;8.30;;;10.30;99.90;;;;;;5037420;28;20037;-58
2023/04/18 08:25:06;;;;;;;13.55;8.55;;;10.40;99.90;;;;;;5037603;28;20052;-58
2023/04/18 08:27:32;;;;;;;13.43;8.00;;;10.40;99.90;;;;;;5037428;28;20061;-58
2023/04/18 08:29:58;;;;;;;12.90;8.02;;;10.50;99.90;;;;;;5037641;28;20053;-58
2023/04/18 08:32:25;;;;;;;12.90;8.48;;;10.70;99.90;;;;;;5019595;28;20037;-58
2023/04/18 08:34:50;;;;;;;14.77;8.43;;;10.70;99.90;;;;;;5036902;28;20045;-57
2023/04/18 08:37:16;;;;;;;14.20;8.10;;;10.70;99.90;;;;;;5019431;28;20060;-58
2023/04/18 08:39:42;;;;;;;13.82;7.72;;;10.70;99.90;;;;;;5037049;28;20049;-57
2023/04/18 08:42:10;;;;;;;12.80;8.38;;;10.70;99.90;;;;;;5037351;28;20097;-58
2023/04/18 08:44:36;;;;;;;17.92;8.52;;;10.70;99.90;;;;;;5037146;28;20097;-58
2023/04/18 08:47:02;;;;;;;14.30;8.05;;;10.70;99.90;;;;;;5037064;28;20080;-58
2023/04/18 08:49:29;;;;;;;12.70;7.65;;;10.70;99.90;;;;;;5036904;28;20045;-58
2023/04/18 08:51:56;;;;;;;12.15;7.32;;;10.80;99.90;;;;;;5037065;28;20041;-58
2023/04/18 08:54:22;;;;;;;15.10;7.82;;;10.90;99.90;;;;;;5018900;28;20067;-58
2023/04/18 08:57:03;;;;;;;13.13;7.80;;;11.00;99.90;;;;;;5037084;28;20818;-57
2023/04/18 08:59:31;;;;;;;14.38;7.78;;;11.00;99.90;;;;;;5036920;28;20046;-57
2023/04/18 09:02:00;;;;;;;11.32;7.05;;;11.00;99.90;;;;;;5036363;28;20734;-58
2023/04/18 09:04:34;;;;;;;12.20;7.75;;;11.10;99.90;;;;;;5018728;28;20059;-57
2023/04/18 09:07:01;;;;;;;14.13;8.05;;;11.10;99.90;;;;;;5018808;28;20092;-58
2023/04/18 09:09:27;;;;;;;13.38;7.68;;;11.20;99.90;;;;;;5035829;28;20065;-58
2023/04/18 09:12:10;;;;;;;12.88;7.60;;;11.30;99.90;;;;;;5036547;28;20049;-58
2023/04/18 09:14:36;;;;;;;11.00;6.82;;;11.40;99.90;;;;;;5036347;28;20041;-58
2023/04/18 09:17:03;;;;;;;11.63;6.13;;;11.50;99.90;;;;;;5036874;28;20057;-58
2023/04/18 09:19:29;;;;;;;10.90;6.65;;;11.50;99.90;;;;;;5036562;28;20053;-58
2023/04/18 09:22:00;;;;;;;10.38;6.68;;;11.50;99.90;;;;;;5036382;28;20053;-58
2023/04/18 09:24:27;;;;;;;10.45;5.72;;;11.50;99.90;;;;;;5035749;28;20073;-58
2023/04/18 09:26:55;;;;;;;10.85;6.28;;;11.60;99.90;;;;;;5036201;28;20059;-58
2023/04/18 09:29:39;;;;;;;12.43;6.47;;;11.50;99.90;;;;;;5035990;28;20041;-58
2023/04/18 09:32:05;;;;;;;12.73;7.05;;;11.50;99.90;;;;;;5035668;28;20056;-57
2023/04/18 09:34:32;;;;;;;11.60;6.90;;;11.60;99.90;;;;;;5035950;28;20041;-58
2023/04/18 09:37:12;;;;;;;11.07;6.57;;;11.60;99.90;;;;;;5036125;28;20049;-57
2023/04/18 09:39:39;;;;;;;12.45;7.13;;;11.80;99.90;;;;;;5035525;28;20056;-57
2023/04/18 09:42:05;;;;;;;11.77;6.32;;;11.70;99.90;;;;;;5035984;28;20054;-58
2023/04/18 09:44:31;;;;;;;10.02;6.63;;;11.70;99.90;;;;;;5035624;28;20045;-58
2023/04/18 09:46:57;;;;;;;10.18;6.03;;;11.70;99.90;;;;;;5036225;28;20056;-57
2023/04/18 09:49:23;;;;;;;11.73;6.38;;;11.70;99.90;;;;;;5042630;28;20029;-58
2023/04/18 09:51:53;;;;;;;9.60;5.70;;;11.80;99.90;;;;;;5055712;28;20060;-58
2023/04/18 09:54:24;;;;;;;8.65;5.35;;;11.90;99.90;;;;;;5055295;28;20049;-58
2023/04/18 09:56:53;;;;;;;9.57;6.20;;;11.90;99.90;;;;;;5055813;28;20057;-58
2023/04/18 09:59:48;;;;;;;9.63;6.10;;;12.00;99.90;;;;;;5055069;28;20100;-58
2023/04/18 10:02:20;;;;;;;10.65;5.07;;;12.20;99.90;;;;;;5037699;28;20521;-58
2023/04/18 10:04:49;;;;;;;11.88;5.93;;;12.30;99.90;;;;;;5033340;28;20053;-58
2023/04/18 10:07:16;;;;;;;11.20;5.22;;;12.30;99.90;;;;;;5035500;28;20091;-58
2023/04/18 10:09:45;;;;;;;10.95;5.97;;;12.40;99.90;;;;;;5035020;28;20120;-58
2023/04/18 10:12:11;;;;;;;9.38;6.05;;;12.30;99.90;;;;;;5035675;28;20045;-58
2023/04/18 10:14:41;;;;;;;10.15;5.85;;;12.30;99.90;;;;;;5034469;28;20088;-58
2023/04/18 10:17:08;;;;;;;12.65;6.68;;;12.50;99.90;;;;;;5035391;28;20048;-58
2023/04/18 10:19:34;;;;;;;9.32;6.13;;;12.40;99.90;;;;;;5035587;28;20153;-58
2023/04/18 10:22:00;;;;;;;10.15;5.63;;;12.50;99.90;;;;;;5035074;28;20087;-57
2023/04/18 10:24:47;;;;;;;10.23;5.63;;;12.50;99.90;;;;;;5035264;28;20046;-57
2023/04/18 10:27:12;;;;;;;9.85;5.80;;;12.60;99.90;;;;;;5035252;28;20050;-57
2023/04/18 10:29:52;;;;;;;9.27;5.10;;;12.60;99.90;;;;;;5035301;28;20219;-58
2023/04/18 10:32:21;;;;;;;11.75;5.55;;;12.50;99.90;;;;;;5035134;28;20049;-57
2023/04/18 10:34:52;;;;;;;9.13;5.13;;;12.50;99.90;;;;;;5034768;28;20068;-57
2023/04/18 10:37:17;;;;;;;9.38;5.60;;;12.70;99.90;;;;;;5034183;28;20072;-58
2023/04/18 10:39:52;;;;;;;10.35;6.20;;;12.50;99.90;;;;;;5035055;28;20600;-58
2023/04/18 10:42:18;;;;;;;13.38;6.63;;;12.60;99.90;;;;;;5035258;28;20480;-57
2023/04/18 10:45:17;;;;;;;9.93;5.68;;;12.80;99.90;;;;;;5035072;28;20071;-57
2023/04/18 10:47:43;;;;;;;11.20;5.90;;;13.00;99.90;;;;;;5034809;28;20139;-58
2023/04/18 10:50:10;;;;;;;8.57;5.65;;;13.00;99.90;;;;;;5035695;28;20080;-58
2023/04/18 10:52:36;;;;;;;9.38;5.90;;;13.10;99.90;;;;;;5037061;28;20230;-59
2023/04/18 10:55:19;;;;;;;10.10;5.60;;;12.90;99.90;;;;;;5036892;28;20796;-58
2023/04/18 10:57:49;;;;;;;10.82;6.50;;;13.00;99.90;;;;;;5037205;28;20064;-57
2023/04/18 11:00:17;;;;;;;9.55;5.70;;;13.20;99.90;;;;;;5038081;28;20045;-58
2023/04/18 11:02:54;;;;;;;9.27;5.75;;;13.20;99.90;;;;;;5037430;28;20054;-58
2023/04/18 11:05:23;;;;;;;11.60;6.43;;;13.00;99.90;;;;;;5037428;28;20112;-58
2023/04/18 11:07:49;;;;;;;9.25;5.68;;;13.10;99.90;;;;;;5037219;28;20068;-58
2023/04/18 11:10:32;;;;;;;9.65;5.40;;;13.00;99.90;;;;;;5037519;28;20054;-58
2023/04/18 11:13:03;;;;;;;10.02;5.70;;;13.20;99.90;;;;;;5037927;28;20045;-58
2023/04/18 11:15:29;;;;;;;9.20;5.55;;;13.20;99.90;;;;;;5037347;28;20053;-57
2023/04/18 11:17:57;;;;;;;8.55;5.05;;;13.20;99.90;;;;;;5037237;28;20046;-58
2023/04/18 11:20:23;;;;;;;11.57;5.85;;;13.20;99.90;;;;;;5037410;28;20052;-58
2023/04/18 11:22:59;;;;;;;9.30;5.85;;;13.10;99.90;;;;;;5037382;28;20045;-58
2023/04/18 11:25:35;;;;;;;9.18;5.25;;;13.20;99.90;;;;;;5037560;28;20041;-58
2023/04/18 11:28:03;;;;;;;7.82;4.68;;;13.20;99.90;;;;;;5037438;28;20958;-57
2023/04/18 11:30:39;;;;;;;8.27;4.95;;;13.30;99.90;;;;;;5037324;28;20041;-58
2023/04/18 11:33:10;;;;;;;9.27;5.45;;;13.40;99.90;;;;;;5037427;28;20072;-58
2023/04/18 11:35:45;;;;;;;9.30;5.47;;;13.40;99.90;;;;;;5037424;28;20408;-58
2023/04/18 11:38:15;;;;;;;9.88;5.68;;;13.40;99.90;;;;;;5022634;28;20034;-58
2023/04/18 11:40:47;;;;;;;8.15;5.10;;;13.40;99.90;;;;;;5017411;28;20133;-57
2023/04/18 11:43:22;;;;;;;10.65;5.13;;;13.50;99.90;;;;;;5017485;28;20046;-57
2023/04/18 11:45:58;;;;;;;8.82;4.78;;;13.40;99.90;;;;;;5017383;28;20038;-58
2023/04/18 11:48:38;;;;;;;8.38;4.90;;;13.40;99.90;;;;;;5020136;28;20046;-58
2023/04/18 11:51:05;;;;;;;10.63;4.82;;;13.40;99.90;;;;;;5036203;28;20115;-58
2023/04/18 11:53:35;;;;;;;9.77;5.20;;;13.50;99.90;;;;;;5037139;28;20164;-58
2023/04/18 11:56:02;;;;;;;7.60;4.43;;;13.60;99.90;;;;;;5028840;28;20089;-57
2023/04/18 11:58:35;;;;;;;6.68;3.70;;;13.60;99.90;;;;;;5027971;28;20409;-57
2023/04/18 12:01:21;;;;;;;8.85;4.68;;;13.90;99.90;;;;;;5017093;28;20046;-58
2023/04/18 12:04:04;;;;;;;7.45;4.47;;;14.00;99.90;;;;;;5016677;28;20466;-58
2023/04/18 12:06:52;;;;;;;9.88;4.68;;;14.30;99.90;;;;;;5016830;28;20125;-58
2023/04/18 12:09:20;;;;;;;7.90;4.38;;;14.40;99.90;;;;;;5020258;28;20057;-58
2023/04/18 12:12:02;;;;;;;6.93;3.72;;;14.40;99.90;;;;;;5036840;28;20058;-57
2023/04/18 12:14:29;;;;;;;6.88;3.88;;;14.40;99.90;;;;;;5036437;28;20081;-57
2023/04/18 12:16:55;;;;;;;7.15;3.85;;;14.50;99.90;;;;;;5018830;28;20077;-58
2023/04/18 12:19:28;;;;;;;7.38;3.78;;;14.70;99.90;;;;;;5036715;28;20057;-57
2023/04/18 12:21:56;;;;;;;6.22;3.40;;;14.50;99.90;;;;;;5036565;28;20513;-58
2023/04/18 12:24:25;;;;;;;7.72;4.15;;;14.30;99.90;;;;;;5036670;28;20155;-58
2023/04/18 12:26:52;;;;;;;7.78;4.20;;;14.50;99.90;;;;;;5019037;28;20084;-58
2023/04/18 12:29:17;;;;;;;8.93;3.58;;;14.80;99.90;;;;;;5036078;28;20053;-57
2023/04/18 12:31:43;;;;;;;6.78;3.70;;;14.90;99.90;;;;;;5035791;28;20042;-58
2023/04/18 12:34:09;;;;;;;8.68;3.47;;;14.80;99.90;;;;;;5035999;28;20097;-58
2023/04/18 12:36:35;;;;;;;6.15;3.08;;;14.70;99.90;;;;;;5037051;28;20420;-58
2023/04/18 12:39:01;;;;;;;8.02;4.13;;;14.40;99.90;;;;;;5039737;28;20044;-58
2023/04/18 12:41:26;;;;;;;7.20;4.30;;;14.40;99.90;;;;;;5039937;28;20030;-58
2023/04/18 12:43:52;;;;;;;8.57;3.95;;;14.20;99.90;;;;;;5039778;28;20045;-58